Time;durP1;ratioP1;P1;durP2;ratioP2;P2;SDS_P1;SDS_P2;PMS_P1;PMS_P2;Temp;Humidity;BMP_temperature;BMP_pressure;BME280_temperature;BME280_humidity;BME280_pressure;Samples;Min_cycle;Max_cycle;Signal;HPM_P1;HPM_P2
2022/04/21 00:00:50;;;;;;;8.57;6.83;;;10.50;61.50;;;;;;4995592;28;20458;-50
2022/04/21 00:03:19;;;;;;;7.00;6.30;;;10.50;60.70;;;;;;4995722;28;20458;-50
2022/04/21 00:05:46;;;;;;;6.37;5.30;;;10.60;61.20;;;;;;4995768;28;20471;-50
2022/04/21 00:08:16;;;;;;;6.77;6.10;;;10.50;62.20;;;;;;4996040;28;20472;-50
2022/04/21 00:10:44;;;;;;;7.97;5.87;;;10.50;63.30;;;;;;4995720;28;20450;-50
2022/04/21 00:13:11;;;;;;;8.33;6.97;;;10.40;63.10;;;;;;4995731;28;20514;-50
2022/04/21 00:15:38;;;;;;;10.00;6.77;;;10.40;63.80;;;;;;4995296;28;20475;-50
2022/04/21 00:18:05;;;;;;;8.80;8.00;;;10.40;64.50;;;;;;4995527;28;20655;-50
2022/04/21 00:20:35;;;;;;;8.67;6.20;;;10.40;64.80;;;;;;4995652;28;20842;-50
2022/04/21 00:25:43;;;;;;;8.43;7.60;;;10.20;65.50;;;;;;4986831;28;20446;-50
2022/04/21 00:28:10;;;;;;;7.80;7.10;;;10.20;66.50;;;;;;4994975;28;20468;-50
2022/04/21 00:30:37;;;;;;;7.40;6.70;;;10.20;66.20;;;;;;4995329;28;20448;-50
2022/04/21 00:33:04;;;;;;;7.67;6.87;;;10.20;66.70;;;;;;4994776;28;21049;-50
2022/04/21 00:35:33;;;;;;;9.07;7.27;;;10.30;66.80;;;;;;4995094;28;20544;-50
2022/04/21 00:38:00;;;;;;;7.30;6.60;;;10.20;66.70;;;;;;4995193;28;20479;-50
2022/04/21 00:40:29;;;;;;;8.13;6.10;;;10.10;66.70;;;;;;4994890;28;20452;-50
2022/04/21 00:42:57;;;;;;;8.83;7.07;;;10.10;67.80;;;;;;4994822;28;20475;-50
2022/04/21 00:45:24;;;;;;;8.07;6.70;;;10.20;68.50;;;;;;4994725;28;20460;-50
2022/04/21 00:47:53;;;;;;;6.87;6.30;;;10.10;67.10;;;;;;4994997;28;20467;-50
2022/04/21 00:50:22;;;;;;;8.17;7.33;;;10.20;68.40;;;;;;4994689;28;21005;-50
2022/04/21 00:52:52;;;;;;;6.27;5.77;;;10.20;67.90;;;;;;4994623;28;20966;-50
2022/04/21 00:55:20;;;;;;;8.33;6.73;;;10.10;67.40;;;;;;4994529;28;20444;-50
2022/04/21 00:57:49;;;;;;;8.23;7.43;;;10.10;68.90;;;;;;4994572;28;20471;-50
2022/04/21 01:00:17;;;;;;;6.57;5.83;;;10.10;68.10;;;;;;4994504;28;20923;-50
2022/04/21 01:02:56;;;;;;;8.27;5.90;;;10.20;69.30;;;;;;4994342;28;20452;-50
2022/04/21 01:05:29;;;;;;;6.80;6.30;;;10.10;69.60;;;;;;4994732;28;20832;-50
2022/04/21 01:07:58;;;;;;;9.27;7.80;;;10.00;69.50;;;;;;4994690;28;20476;-50
2022/04/21 01:10:27;;;;;;;8.77;7.87;;;9.90;72.00;;;;;;4994255;28;20452;-50
2022/04/21 01:12:54;;;;;;;11.43;7.77;;;10.00;72.40;;;;;;4994209;28;20460;-51
2022/04/21 01:15:22;;;;;;;9.87;7.23;;;10.10;72.10;;;;;;4994387;28;20467;-50
2022/04/21 01:17:49;;;;;;;7.27;6.57;;;10.00;73.30;;;;;;4994424;28;20475;-50
2022/04/21 01:20:19;;;;;;;9.33;8.17;;;9.90;74.60;;;;;;4994263;28;21016;-50
2022/04/21 01:22:46;;;;;;;8.90;8.10;;;9.90;74.60;;;;;;4994144;28;20436;-50
2022/04/21 01:25:13;;;;;;;8.37;7.03;;;9.80;75.60;;;;;;4994081;28;20523;-50
2022/04/21 01:27:42;;;;;;;9.27;8.57;;;9.80;76.00;;;;;;4994272;28;20909;-50
2022/04/21 01:30:11;;;;;;;7.93;7.07;;;9.80;74.90;;;;;;4994021;28;20464;-50
2022/04/21 01:32:39;;;;;;;8.57;7.87;;;9.80;76.90;;;;;;4992909;28;20517;-50
2022/04/21 01:35:07;;;;;;;8.17;7.37;;;9.80;77.20;;;;;;4994272;28;20432;-50
2022/04/21 01:43:07;;;;;;;14.87;8.30;;;9.70;77.20;;;;;;4994003;28;20411;-50
2022/04/21 01:45:34;;;;;;;7.57;6.87;;;9.50;77.20;;;;;;4994249;28;20454;-50
2022/04/21 01:48:02;;;;;;;10.57;7.53;;;9.50;78.70;;;;;;4993764;28;20981;-50
2022/04/21 01:50:30;;;;;;;10.80;7.53;;;9.60;79.80;;;;;;4999144;28;20450;-50
2022/04/21 01:52:59;;;;;;;9.13;7.87;;;9.60;79.70;;;;;;5000702;28;20447;-50
2022/04/21 01:55:27;;;;;;;7.67;6.80;;;9.60;80.00;;;;;;5000596;28;20509;-50
2022/04/21 01:57:54;;;;;;;13.63;8.00;;;9.60;80.10;;;;;;5000223;28;20877;-50
2022/04/21 02:00:22;;;;;;;8.80;7.93;;;9.50;80.50;;;;;;5000305;28;20939;-50
2022/04/21 02:02:49;;;;;;;9.00;7.93;;;9.50;81.10;;;;;;5000249;28;20452;-50
2022/04/21 02:05:16;;;;;;;8.80;8.07;;;9.40;81.50;;;;;;5000135;28;20510;-50
2022/04/21 02:07:44;;;;;;;10.03;7.43;;;9.20;82.00;;;;;;5000072;28;20463;-50
2022/04/21 02:10:13;;;;;;;12.90;9.10;;;9.20;84.20;;;;;;5000522;28;20447;-50
2022/04/21 02:12:40;;;;;;;8.13;7.33;;;9.30;84.60;;;;;;5000141;28;20934;-50
2022/04/21 02:15:08;;;;;;;8.73;7.90;;;9.40;84.60;;;;;;5000384;28;20542;-50
2022/04/21 02:17:36;;;;;;;9.20;8.20;;;9.30;85.20;;;;;;5000331;28;20496;-50
2022/04/21 02:20:05;;;;;;;9.20;8.30;;;9.20;85.10;;;;;;5000379;28;20451;-50
2022/04/21 02:22:32;;;;;;;8.63;7.73;;;9.30;85.60;;;;;;5000332;28;20459;-50
2022/04/21 02:24:59;;;;;;;11.00;8.37;;;9.20;86.70;;;;;;4999983;28;20452;-50
2022/04/21 02:27:27;;;;;;;8.87;7.97;;;9.10;86.80;;;;;;5000287;28;20432;-50
2022/04/21 02:29:54;;;;;;;10.50;8.50;;;9.20;87.50;;;;;;5000275;28;20459;-50
2022/04/21 02:32:21;;;;;;;9.33;8.33;;;9.10;87.50;;;;;;5000052;28;20451;-53
2022/04/21 02:34:48;;;;;;;9.67;8.77;;;9.10;87.60;;;;;;5000219;28;20452;-50
2022/04/21 02:37:16;;;;;;;10.20;7.73;;;9.10;88.40;;;;;;5000112;28;20542;-50
2022/04/21 02:39:43;;;;;;;9.87;8.97;;;9.00;89.40;;;;;;5000270;28;20482;-50
2022/04/21 02:42:12;;;;;;;9.60;8.70;;;8.90;89.80;;;;;;4998694;28;20832;-50
2022/04/21 02:44:40;;;;;;;9.13;8.23;;;9.00;90.50;;;;;;4999951;28;20431;-50
2022/04/21 02:47:08;;;;;;;8.70;7.93;;;8.90;90.50;;;;;;5000003;28;20853;-49
2022/04/21 02:49:36;;;;;;;10.50;9.13;;;9.00;90.30;;;;;;5000174;28;20439;-50
2022/04/21 02:52:06;;;;;;;12.60;8.63;;;8.90;91.00;;;;;;5000136;28;20817;-50
2022/04/21 02:57:27;;;;;;;10.00;9.10;;;8.80;91.40;;;;;;4975632;28;20514;-50
2022/04/21 02:59:57;;;;;;;9.57;8.50;;;8.60;91.50;;;;;;5000080;28;20454;-50
2022/04/21 03:02:25;;;;;;;9.57;8.73;;;8.50;92.50;;;;;;4995802;28;20463;-50
2022/04/21 03:04:54;;;;;;;11.37;10.03;;;8.50;92.80;;;;;;4996896;28;20452;-50
2022/04/21 03:07:22;;;;;;;10.80;9.70;;;8.40;93.30;;;;;;4996474;28;20542;-49
2022/04/21 03:09:49;;;;;;;11.00;9.47;;;8.30;93.50;;;;;;4996882;28;20451;-49
2022/04/21 03:12:16;;;;;;;14.83;10.47;;;8.30;93.80;;;;;;4996771;28;20554;-49
2022/04/21 03:14:44;;;;;;;10.20;9.20;;;8.40;93.60;;;;;;4996410;28;20969;-50
2022/04/21 03:17:12;;;;;;;10.93;9.97;;;8.40;93.60;;;;;;4996604;28;20515;-49
2022/04/21 03:19:40;;;;;;;10.07;9.07;;;8.40;93.90;;;;;;4996357;28;20452;-49
2022/04/21 03:24:55;;;;;;;9.73;8.93;;;8.40;93.80;;;;;;4996260;28;20423;-49
2022/04/21 03:27:22;;;;;;;10.17;8.70;;;8.40;94.30;;;;;;4996245;28;20888;-49
2022/04/21 03:29:49;;;;;;;9.87;9.07;;;8.40;94.40;;;;;;4996154;28;20458;-49
2022/04/21 03:32:17;;;;;;;14.83;10.03;;;8.40;94.70;;;;;;4996280;28;20452;-49
2022/04/21 03:34:45;;;;;;;9.73;8.93;;;8.50;94.60;;;;;;4995858;28;21024;-49
2022/04/21 03:37:14;;;;;;;11.00;9.90;;;8.50;94.80;;;;;;4995928;28;20488;-49
2022/04/21 03:39:41;;;;;;;10.80;9.80;;;8.50;94.90;;;;;;4995945;28;20456;-50
2022/04/21 03:42:18;;;;;;;10.60;9.33;;;8.50;94.60;;;;;;4995961;28;20437;-49
2022/04/21 03:44:45;;;;;;;10.20;9.40;;;8.50;94.80;;;;;;4996089;28;20412;-49
2022/04/21 03:47:13;;;;;;;15.10;9.17;;;8.30;95.30;;;;;;4996003;28;20444;-49
2022/04/21 03:49:41;;;;;;;10.10;9.10;;;8.20;95.80;;;;;;4995854;28;20439;-50
2022/04/21 03:52:09;;;;;;;11.80;8.87;;;8.20;96.30;;;;;;4995822;28;20448;-49
2022/04/21 03:54:37;;;;;;;11.20;9.30;;;8.10;96.30;;;;;;4996056;28;20502;-50
2022/04/21 03:57:04;;;;;;;11.07;9.87;;;8.10;96.80;;;;;;4995494;28;20502;-49
2022/04/21 03:59:32;;;;;;;11.40;10.13;;;8.20;96.80;;;;;;4995542;28;20504;-49
2022/04/21 04:02:02;;;;;;;11.13;10.10;;;8.10;96.50;;;;;;4995616;28;20938;-49
2022/04/21 04:04:30;;;;;;;10.97;9.90;;;8.00;96.80;;;;;;4995465;28;20462;-50
2022/04/21 04:12:32;;;;;;;11.40;10.27;;;8.10;97.20;;;;;;4995190;28;20914;-49
2022/04/21 04:14:59;;;;;;;11.33;9.60;;;8.10;96.80;;;;;;4995353;28;20899;-49
2022/04/21 04:17:26;;;;;;;11.70;10.57;;;8.20;97.00;;;;;;4995088;28;21016;-49
2022/04/21 04:19:54;;;;;;;11.87;10.83;;;8.20;96.90;;;;;;4995142;28;20451;-49
2022/04/21 04:22:22;;;;;;;13.50;11.07;;;8.30;96.70;;;;;;4995544;28;20448;-49
2022/04/21 04:24:53;;;;;;;11.63;10.63;;;8.30;97.20;;;;;;4995235;28;20459;-49
2022/04/21 04:27:21;;;;;;;11.70;10.50;;;8.30;97.00;;;;;;4995285;28;20437;-49
2022/04/21 04:29:48;;;;;;;12.70;10.53;;;8.30;97.00;;;;;;4995066;28;20436;-49
2022/04/21 04:32:15;;;;;;;11.83;10.83;;;8.40;97.00;;;;;;4995185;28;20448;-49
2022/04/21 04:34:42;;;;;;;13.70;12.30;;;8.40;97.20;;;;;;4994660;28;20559;-49
2022/04/21 04:37:09;;;;;;;10.73;9.63;;;8.50;97.30;;;;;;4994723;28;20482;-51
2022/04/21 04:39:38;;;;;;;12.07;10.80;;;8.50;97.20;;;;;;4995147;28;20448;-50
2022/04/21 04:42:17;;;;;;;12.40;11.20;;;8.50;97.10;;;;;;4994787;28;20436;-51
2022/04/21 04:44:44;;;;;;;13.23;11.83;;;8.40;97.20;;;;;;4994987;28;20428;-51
2022/04/21 04:47:10;;;;;;;15.00;11.33;;;8.40;97.60;;;;;;4994531;28;20444;-49
2022/04/21 04:49:37;;;;;;;13.30;12.10;;;8.40;97.40;;;;;;4994953;28;20447;-49
2022/04/21 04:52:05;;;;;;;12.27;11.17;;;8.30;97.60;;;;;;4994541;28;20939;-49
2022/04/21 04:54:32;;;;;;;12.40;11.20;;;8.30;97.60;;;;;;4994888;28;20498;-50
2022/04/21 04:57:01;;;;;;;16.37;12.87;;;8.30;98.10;;;;;;4994944;28;20578;-50
2022/04/21 04:59:29;;;;;;;12.40;11.23;;;8.30;97.80;;;;;;4994623;28;20546;-50
2022/04/21 05:01:56;;;;;;;14.00;12.67;;;8.40;97.70;;;;;;4994598;28;20456;-51
2022/04/21 05:04:26;;;;;;;12.77;11.30;;;8.30;97.50;;;;;;4994657;28;20896;-50
2022/04/21 05:06:54;;;;;;;12.60;11.40;;;8.40;98.00;;;;;;4994635;28;20857;-50
2022/04/21 05:09:23;;;;;;;12.53;11.27;;;8.30;98.00;;;;;;4994562;28;20478;-50
2022/04/21 05:11:52;;;;;;;13.70;12.50;;;8.30;97.80;;;;;;4994654;28;20475;-50
2022/04/21 05:14:20;;;;;;;13.37;10.53;;;8.40;98.30;;;;;;4994081;28;20455;-50
2022/04/21 05:16:48;;;;;;;14.37;12.87;;;8.30;97.90;;;;;;4994099;28;20448;-50
2022/04/21 05:19:17;;;;;;;14.17;12.23;;;8.30;98.40;;;;;;4994467;28;20472;-50
2022/04/21 05:21:45;;;;;;;13.17;11.73;;;8.40;98.50;;;;;;4994505;28;20448;-50
2022/04/21 05:24:13;;;;;;;14.33;12.93;;;8.40;98.20;;;;;;4993385;28;20986;-50
2022/04/21 05:26:42;;;;;;;13.30;12.00;;;8.30;98.40;;;;;;4994479;28;20456;-50
2022/04/21 05:31:56;;;;;;;13.70;12.40;;;8.30;99.00;;;;;;4994008;28;20417;-50
2022/04/21 05:34:24;;;;;;;15.60;12.10;;;8.40;99.30;;;;;;4993680;28;20476;-50
2022/04/21 05:36:52;;;;;;;13.47;11.67;;;8.40;98.80;;;;;;4994162;28;20874;-50
2022/04/21 05:39:20;;;;;;;17.17;12.93;;;8.40;98.70;;;;;;4993878;28;20482;-50
2022/04/21 05:41:48;;;;;;;14.80;12.20;;;8.40;98.70;;;;;;4993850;28;21009;-50
2022/04/21 05:44:16;;;;;;;14.47;12.93;;;8.30;98.80;;;;;;4993900;28;20471;-50
2022/04/21 05:46:44;;;;;;;20.50;13.70;;;8.40;98.70;;;;;;4993861;28;21014;-50
2022/04/21 05:49:13;;;;;;;15.00;13.43;;;8.40;98.90;;;;;;4994024;28;20837;-50
2022/04/21 05:51:42;;;;;;;15.03;13.60;;;8.50;99.10;;;;;;4993869;28;20447;-50
2022/04/21 05:54:10;;;;;;;14.17;12.70;;;8.50;99.00;;;;;;4993844;28;20502;-50
2022/04/21 05:56:37;;;;;;;15.80;13.57;;;8.60;99.00;;;;;;4993668;28;20459;-50
2022/04/21 05:59:05;;;;;;;14.03;12.63;;;8.60;99.50;;;;;;4993696;28;20491;-50
2022/04/21 06:01:32;;;;;;;16.23;12.33;;;8.80;99.80;;;;;;4993427;28;20466;-50
2022/04/21 06:03:59;;;;;;;14.40;13.00;;;8.80;98.90;;;;;;4993268;28;20460;-50
2022/04/21 06:06:28;;;;;;;16.27;13.90;;;8.90;98.80;;;;;;4993478;28;20458;-50
2022/04/21 06:08:55;;;;;;;15.40;14.10;;;8.90;98.70;;;;;;4993410;28;21025;-50
2022/04/21 06:11:23;;;;;;;16.80;15.10;;;9.00;98.90;;;;;;4993819;28;20791;-49
2022/04/21 06:13:51;;;;;;;15.93;14.40;;;8.90;98.90;;;;;;4993700;28;20558;-50
2022/04/21 06:16:19;;;;;;;13.90;12.57;;;8.90;98.50;;;;;;4993460;28;20452;-50
2022/04/21 06:18:46;;;;;;;16.03;14.47;;;8.90;98.70;;;;;;4993634;28;20570;-50
2022/04/21 06:21:13;;;;;;;19.40;13.90;;;8.80;99.00;;;;;;4993426;28;20539;-50
2022/04/21 06:23:41;;;;;;;17.40;13.13;;;8.90;98.70;;;;;;4993228;28;20459;-49
2022/04/21 06:26:09;;;;;;;15.53;13.37;;;9.00;98.20;;;;;;4993614;28;20474;-50
2022/04/21 06:28:37;;;;;;;14.37;13.07;;;9.00;98.00;;;;;;4993615;28;20583;-50
2022/04/21 06:31:05;;;;;;;16.03;13.53;;;9.10;97.90;;;;;;4993547;28;20618;-50
2022/04/21 06:33:32;;;;;;;16.30;14.60;;;9.20;97.80;;;;;;4993058;28;20540;-50
2022/04/21 06:35:59;;;;;;;20.23;15.17;;;9.20;98.40;;;;;;4995117;28;20451;-49
2022/04/21 06:38:26;;;;;;;22.60;14.73;;;9.20;98.00;;;;;;4997074;28;20884;-49
2022/04/21 06:40:56;;;;;;;15.83;14.33;;;9.20;98.50;;;;;;4996856;28;20958;-50
2022/04/21 06:48:52;;;;;;;15.03;13.53;;;9.40;97.60;;;;;;4996958;28;20442;-50
2022/04/21 06:51:19;;;;;;;14.77;13.37;;;9.40;97.60;;;;;;4996570;28;21001;-50
2022/04/21 06:53:47;;;;;;;16.17;14.70;;;9.50;97.10;;;;;;4996440;28;20447;-50
2022/04/21 06:56:16;;;;;;;16.60;13.80;;;9.40;96.70;;;;;;4997117;28;20464;-50
2022/04/21 06:58:43;;;;;;;15.27;13.60;;;9.40;96.90;;;;;;4996467;28;20491;-50
2022/04/21 07:01:10;;;;;;;16.87;15.20;;;9.50;97.10;;;;;;4996502;28;20959;-51
2022/04/21 07:03:38;;;;;;;16.60;15.00;;;9.60;96.40;;;;;;4996632;28;20452;-51
2022/04/21 07:06:06;;;;;;;15.03;13.63;;;9.50;96.50;;;;;;4996346;28;20456;-51
2022/04/21 07:08:34;;;;;;;14.50;13.10;;;9.60;96.50;;;;;;4996085;28;20464;-51
2022/04/21 07:11:01;;;;;;;15.53;14.03;;;9.80;97.50;;;;;;4996645;28;20455;-51
2022/04/21 07:13:30;;;;;;;14.20;12.77;;;9.90;96.00;;;;;;4996203;28;20440;-49
2022/04/21 07:15:57;;;;;;;13.90;12.40;;;9.80;95.60;;;;;;4996412;28;20837;-49
2022/04/21 07:18:24;;;;;;;15.50;13.80;;;9.70;95.70;;;;;;4996430;28;20491;-49
2022/04/21 07:20:51;;;;;;;15.10;13.57;;;9.70;95.70;;;;;;4996444;28;20924;-49
2022/04/21 07:23:18;;;;;;;15.43;13.90;;;9.70;95.80;;;;;;4995935;28;20971;-49
2022/04/21 07:25:45;;;;;;;15.43;13.83;;;9.80;95.60;;;;;;4995883;28;20492;-50
2022/04/21 07:28:12;;;;;;;14.80;13.43;;;9.90;96.00;;;;;;4995978;28;20464;-50
2022/04/21 07:30:41;;;;;;;15.47;13.87;;;10.10;95.00;;;;;;4995759;28;20939;-51
2022/04/21 07:33:08;;;;;;;14.10;12.70;;;10.20;94.80;;;;;;4995822;28;20507;-50
2022/04/21 07:35:35;;;;;;;16.20;13.03;;;10.10;94.20;;;;;;4995989;28;20452;-50
2022/04/21 07:38:02;;;;;;;16.33;14.53;;;10.20;94.90;;;;;;4995688;28;20818;-50
2022/04/21 07:40:30;;;;;;;18.47;13.50;;;10.40;94.60;;;;;;4995468;28;20448;-50
2022/04/21 07:42:58;;;;;;;14.37;12.90;;;10.50;94.10;;;;;;4995561;28;20458;-50
2022/04/21 07:45:25;;;;;;;14.80;13.30;;;10.20;93.80;;;;;;4995626;28;20502;-49
2022/04/21 07:47:54;;;;;;;14.03;12.57;;;10.30;94.10;;;;;;4994982;28;20468;-50
2022/04/21 07:50:24;;;;;;;16.93;13.90;;;10.30;93.80;;;;;;4995746;28;20463;-49
2022/04/21 07:55:36;;;;;;;14.07;11.90;;;10.50;93.30;;;;;;4995757;28;20973;-51
2022/04/21 07:58:03;;;;;;;12.83;11.47;;;10.80;93.50;;;;;;4995421;28;20583;-49
2022/04/21 08:00:30;;;;;;;14.80;13.30;;;11.00;93.20;;;;;;4995775;28;20452;-48
2022/04/21 08:02:58;;;;;;;14.10;12.47;;;11.10;92.90;;;;;;4995532;28;20547;-52
2022/04/21 08:05:25;;;;;;;13.13;11.73;;;11.20;92.70;;;;;;4995579;28;20531;-49
2022/04/21 08:07:52;;;;;;;15.57;11.60;;;11.30;92.20;;;;;;4995654;28;20514;-50
2022/04/21 08:10:20;;;;;;;13.47;12.20;;;11.50;92.20;;;;;;4995322;28;20452;-50
2022/04/21 08:12:49;;;;;;;13.37;12.07;;;11.40;92.40;;;;;;4995144;28;20927;-50
2022/04/21 08:15:23;;;;;;;13.83;12.43;;;11.70;91.70;;;;;;4995228;28;20542;-50
2022/04/21 08:17:51;;;;;;;13.60;12.30;;;12.10;92.00;;;;;;4995117;28;20986;-50
2022/04/21 08:20:20;;;;;;;11.20;10.20;;;12.90;91.40;;;;;;4995098;28;20483;-50
2022/04/21 08:22:47;;;;;;;12.30;10.80;;;14.00;88.40;;;;;;4994942;28;20809;-51
2022/04/21 08:33:29;;;;;;;11.60;10.40;;;15.80;80.60;;;;;;4994739;28;20499;-51
2022/04/21 08:35:59;;;;;;;13.63;11.97;;;16.10;76.70;;;;;;4994812;28;20483;-50
2022/04/21 08:38:27;;;;;;;12.50;11.30;;;16.00;76.30;;;;;;4994653;28;21005;-50
2022/04/21 08:40:55;;;;;;;13.23;11.97;;;16.30;76.40;;;;;;4995137;28;20879;-51
2022/04/21 08:43:24;;;;;;;13.63;12.23;;;16.60;76.90;;;;;;4995040;28;20455;-51
2022/04/21 08:45:53;;;;;;;12.43;11.10;;;17.20;74.90;;;;;;4995001;28;20460;-51
2022/04/21 08:48:21;;;;;;;11.90;10.70;;;17.40;73.00;;;;;;4994825;28;20526;-51
2022/04/21 08:50:48;;;;;;;12.63;11.20;;;17.70;71.80;;;;;;4994563;28;20950;-50
2022/04/21 08:53:19;;;;;;;12.33;11.07;;;17.30;71.80;;;;;;4994490;28;20910;-50
2022/04/21 08:55:47;;;;;;;13.13;11.83;;;17.30;72.20;;;;;;4994625;28;20467;-51
2022/04/21 08:58:14;;;;;;;10.70;9.80;;;17.20;71.80;;;;;;4993971;28;20494;-51
2022/04/21 09:00:43;;;;;;;12.87;11.80;;;17.40;69.50;;;;;;4994136;28;20475;-51
2022/04/21 09:03:11;;;;;;;11.97;10.77;;;17.90;69.60;;;;;;4994149;28;20519;-51
2022/04/21 09:05:39;;;;;;;12.17;10.93;;;18.00;68.70;;;;;;4994327;28;20804;-51
2022/04/21 09:08:17;;;;;;;11.40;10.40;;;18.80;67.00;;;;;;4994224;28;20487;-51
2022/04/21 09:10:47;;;;;;;10.60;9.70;;;18.50;65.30;;;;;;4994457;28;20504;-51
2022/04/21 09:13:14;;;;;;;12.33;11.23;;;19.50;63.60;;;;;;4993950;28;20946;-51
2022/04/21 09:15:45;;;;;;;11.80;10.70;;;19.40;64.70;;;;;;4994432;28;20506;-51
2022/04/21 09:18:13;;;;;;;11.27;10.30;;;19.20;63.90;;;;;;4993855;28;20491;-51
2022/04/21 09:20:40;;;;;;;10.40;9.57;;;18.70;63.60;;;;;;4993605;28;20538;-51
2022/04/21 09:23:10;;;;;;;11.20;10.20;;;18.60;65.00;;;;;;4993693;28;20440;-51
2022/04/21 09:25:48;;;;;;;10.47;9.50;;;19.30;63.20;;;;;;4994024;28;20463;-51
2022/04/21 09:28:23;;;;;;;10.60;9.53;;;;;;;;;;4993756;28;20551;-51
2022/04/21 09:30:52;;;;;;;10.67;9.67;;;19.70;60.60;;;;;;4993974;28;20457;-51
2022/04/21 09:33:28;;;;;;;9.43;8.63;;;19.90;59.10;;;;;;4993646;28;20483;-51
2022/04/21 09:35:57;;;;;;;11.13;8.80;;;19.60;59.10;;;;;;4994071;28;20432;-52
2022/04/21 09:38:24;;;;;;;10.97;9.87;;;20.30;59.30;;;;;;4993949;28;20488;-51
2022/04/21 09:40:53;;;;;;;11.33;10.33;;;20.50;59.50;;;;;;4994007;28;20769;-51
2022/04/21 09:43:28;;;;;;;10.63;9.73;;;20.20;57.80;;;;;;4993587;28;20901;-51
2022/04/21 09:46:09;;;;;;;10.77;9.90;;;20.50;59.20;;;;;;4994169;28;20535;-51
2022/04/21 09:48:37;;;;;;;11.83;9.93;;;20.30;58.20;;;;;;4993850;28;20539;-51
2022/04/21 09:51:12;;;;;;;11.23;10.13;;;19.70;56.80;;;;;;4994027;28;20454;-51
2022/04/21 09:53:53;;;;;;;10.40;9.40;;;20.10;57.80;;;;;;4993703;28;20498;-51
2022/04/21 09:56:33;;;;;;;9.27;8.47;;;19.70;57.80;;;;;;4994019;28;20886;-51
2022/04/21 09:59:00;;;;;;;12.73;9.60;;;19.60;57.90;;;;;;4993436;28;20494;-51
2022/04/21 10:01:29;;;;;;;9.50;8.70;;;19.70;57.90;;;;;;4993903;28;20451;-51
2022/04/21 10:03:56;;;;;;;10.60;9.50;;;19.50;56.80;;;;;;4993800;28;20452;-51
2022/04/21 10:06:24;;;;;;;10.57;9.47;;;20.10;56.10;;;;;;4993536;28;20493;-52
2022/04/21 10:08:51;;;;;;;8.33;7.53;;;21.40;55.60;;;;;;4993833;28;20821;-51
2022/04/21 10:11:23;;;;;;;10.03;9.17;;;21.60;56.20;;;;;;4996226;28;20456;-51
2022/04/21 10:13:54;;;;;;;9.50;8.70;;;21.50;54.90;;;;;;4997749;28;20475;-51
2022/04/21 10:16:22;;;;;;;9.47;8.67;;;20.70;55.60;;;;;;4997737;28;20451;-51
2022/04/21 10:18:50;;;;;;;8.83;8.07;;;20.50;56.80;;;;;;4997530;28;20499;-51
2022/04/21 10:21:21;;;;;;;10.20;8.13;;;21.00;56.40;;;;;;4997395;28;20456;-51
2022/04/21 10:23:48;;;;;;;9.80;9.00;;;20.90;55.70;;;;;;4997109;28;20974;-50
2022/04/21 10:26:41;;;;;;;9.90;9.10;;;20.00;56.00;;;;;;4997365;28;20452;-50
2022/04/21 10:29:15;;;;;;;10.03;8.00;;;20.10;56.80;;;;;;4997122;28;20451;-51
2022/04/21 10:31:51;;;;;;;8.83;8.03;;;20.20;56.70;;;;;;4997351;28;20923;-51
2022/04/21 10:34:31;;;;;;;8.80;7.90;;;20.00;55.10;;;;;;4996826;28;20565;-51
2022/04/21 10:37:15;;;;;;;7.57;6.87;;;19.50;57.00;;;;;;4997415;28;20455;-51
2022/04/21 10:40:04;;;;;;;7.73;7.03;;;18.70;56.80;;;;;;4997018;28;20474;-50
2022/04/21 10:42:55;;;;;;;8.80;7.90;;;18.10;58.40;;;;;;4996961;28;20538;-51
2022/04/21 10:45:25;;;;;;;7.20;6.47;;;18.60;58.20;;;;;;4997311;28;20847;-51
2022/04/21 10:48:04;;;;;;;7.30;6.70;;;18.70;58.30;;;;;;4996705;28;20835;-51
2022/04/21 10:50:32;;;;;;;9.00;6.43;;;20.00;58.20;;;;;;4996692;28;20438;-51
2022/04/21 10:58:53;;;;;;;7.67;7.00;;;20.10;57.10;;;;;;4996471;28;20443;-51
2022/04/21 11:01:28;;;;;;;7.27;6.67;;;21.30;55.90;;;;;;4996567;28;20428;-51
2022/04/21 11:04:23;;;;;;;7.53;6.93;;;22.10;55.20;;;;;;4996845;28;20782;-51
2022/04/21 11:06:52;;;;;;;7.67;7.03;;;20.70;55.20;;;;;;4990596;28;20460;-50
2022/04/21 11:09:43;;;;;;;7.03;6.33;;;19.60;56.60;;;;;;4996662;28;20468;-50
2022/04/21 11:12:12;;;;;;;6.70;6.10;;;19.90;57.30;;;;;;4996371;28;20436;-51
2022/04/21 11:14:39;;;;;;;6.50;5.90;;;19.90;56.90;;;;;;4996247;28;20460;-51
2022/04/21 11:17:09;;;;;;;6.10;5.53;;;20.60;57.50;;;;;;4996571;28;21060;-51
2022/04/21 11:19:44;;;;;;;5.73;5.23;;;20.80;56.20;;;;;;4996567;28;20484;-51
2022/04/21 11:22:13;;;;;;;5.80;5.40;;;20.80;56.50;;;;;;4995185;28;20499;-51
2022/04/21 11:25:03;;;;;;;6.30;5.70;;;20.90;56.30;;;;;;4995999;28;20504;-51
2022/04/21 11:27:32;;;;;;;5.60;5.10;;;21.20;56.40;;;;;;4996172;28;21002;-51
2022/04/21 11:30:01;;;;;;;5.33;4.83;;;20.60;55.70;;;;;;4996357;28;20459;-51
2022/04/21 11:32:30;;;;;;;5.80;5.30;;;19.80;56.50;;;;;;4995767;28;20456;-50
2022/04/21 11:35:02;;;;;;;5.83;5.33;;;19.90;56.30;;;;;;4996196;28;20486;-51
2022/04/21 11:37:48;;;;;;;5.37;4.87;;;19.80;56.10;;;;;;4996141;28;20566;-51
2022/04/21 11:40:33;;;;;;;5.13;4.73;;;20.30;56.10;;;;;;4995859;28;20475;-50
2022/04/21 11:43:03;;;;;;;4.70;4.17;;;21.30;56.20;;;;;;4995912;28;20434;-51
2022/04/21 11:45:33;;;;;;;4.60;4.20;;;;;;;;;;4996197;28;20444;-51
2022/04/21 11:48:02;;;;;;;5.03;4.63;;;21.90;55.60;;;;;;4996040;28;20473;-51
2022/04/21 11:50:31;;;;;;;4.70;4.30;;;22.40;54.80;;;;;;4996109;28;20448;-51
2022/04/21 11:52:59;;;;;;;3.83;3.53;;;22.00;55.30;;;;;;4996009;28;20452;-51
2022/04/21 11:55:29;;;;;;;4.33;3.93;;;21.40;55.00;;;;;;4995706;28;20559;-50
2022/04/21 11:57:57;;;;;;;4.33;3.93;;;20.50;55.00;;;;;;4996211;28;20468;-50
2022/04/21 12:08:45;;;;;;;6.47;4.40;;;18.60;57.20;;;;;;4994263;28;20969;-50
2022/04/21 12:11:15;;;;;;;3.77;3.47;;;18.50;56.70;;;;;;4994846;28;20495;-50
2022/04/21 12:13:44;;;;;;;4.50;3.33;;;18.70;56.80;;;;;;4995233;28;20494;-51
2022/04/21 12:16:45;;;;;;;3.30;2.60;;;19.10;57.50;;;;;;4995362;28;20456;-50
2022/04/21 12:19:29;;;;;;;3.90;3.60;;;19.30;56.60;;;;;;4995072;28;20578;-50
2022/04/21 12:21:59;;;;;;;3.53;3.23;;;19.30;56.80;;;;;;4995158;28;20437;-51
2022/04/21 12:24:36;;;;;;;3.70;3.40;;;19.30;56.20;;;;;;4995531;28;20436;-50
2022/04/21 12:27:05;;;;;;;3.53;3.33;;;19.00;56.10;;;;;;4995817;28;20448;-50
2022/04/21 12:29:45;;;;;;;3.70;3.40;;;18.60;57.30;;;;;;4995252;28;20472;-51
2022/04/21 12:32:12;;;;;;;3.47;3.17;;;18.50;57.10;;;;;;4994991;28;20440;-51
2022/04/21 12:34:42;;;;;;;3.90;2.87;;;18.50;58.20;;;;;;4994443;28;20480;-51
2022/04/21 12:37:09;;;;;;;3.13;2.63;;;18.50;57.20;;;;;;4995274;28;20542;-51
2022/04/21 12:39:37;;;;;;;3.30;3.00;;;18.50;57.10;;;;;;4994716;28;20480;-51
2022/04/21 12:42:05;;;;;;;4.30;3.90;;;18.50;57.10;;;;;;4995054;28;20448;-51
2022/04/21 12:44:33;;;;;;;3.00;2.70;;;18.20;56.80;;;;;;4994740;28;20827;-51
2022/04/21 12:47:01;;;;;;;3.20;2.90;;;17.90;57.10;;;;;;4994774;28;20440;-50
2022/04/21 12:50:05;;;;;;;3.07;2.77;;;18.20;57.80;;;;;;4994592;28;20975;-50
2022/04/21 12:52:38;;;;;;;5.03;3.50;;;18.30;57.90;;;;;;4994454;28;20452;-50
2022/04/21 12:55:11;;;;;;;6.30;2.93;;;18.20;57.80;;;;;;4994419;28;20472;-50
2022/04/21 12:57:40;;;;;;;3.07;2.83;;;18.30;58.10;;;;;;4994412;28;20906;-50
2022/04/21 13:00:12;;;;;;;2.90;2.60;;;18.50;57.80;;;;;;4994438;28;21069;-50
2022/04/21 13:02:39;;;;;;;2.67;2.47;;;18.70;59.00;;;;;;4994636;28;20437;-51
2022/04/21 13:05:07;;;;;;;7.43;2.80;;;19.00;57.20;;;;;;4994409;28;20456;-50
2022/04/21 13:07:34;;;;;;;4.17;3.00;;;19.30;56.70;;;;;;4994397;28;20465;-51
2022/04/21 13:10:02;;;;;;;4.47;2.50;;;19.70;56.90;;;;;;4994033;28;20448;-50
2022/04/21 13:12:30;;;;;;;3.33;3.03;;;19.80;58.90;;;;;;4994437;28;20535;-50
2022/04/21 13:14:57;;;;;;;3.87;3.10;;;19.80;56.30;;;;;;4994616;28;20448;-50
2022/04/21 13:17:24;;;;;;;3.27;3.07;;;19.60;56.90;;;;;;4994419;28;20474;-50
2022/04/21 13:19:51;;;;;;;3.67;2.70;;;19.70;56.80;;;;;;4994380;28;20590;-50
2022/04/21 13:22:18;;;;;;;3.60;3.30;;;19.70;57.00;;;;;;4994503;28;20510;-50
2022/04/21 13:24:45;;;;;;;3.27;3.00;;;18.80;57.30;;;;;;4994305;28;20444;-50
2022/04/21 13:27:15;;;;;;;6.80;3.37;;;18.50;57.10;;;;;;4994486;28;21025;-50
2022/04/21 13:29:43;;;;;;;3.00;2.60;;;18.20;57.20;;;;;;4994098;28;20428;-50
2022/04/21 13:34:51;;;;;;;3.90;3.47;;;18.80;58.10;;;;;;4971696;28;20440;-50
2022/04/21 13:37:18;;;;;;;3.87;2.90;;;18.90;59.10;;;;;;4993757;28;20455;-50
2022/04/21 13:39:45;;;;;;;3.50;3.20;;;19.10;57.60;;;;;;4994215;28;20629;-50
2022/04/21 13:42:14;;;;;;;3.67;3.37;;;19.90;58.00;;;;;;4994204;28;20459;-50
2022/04/21 13:44:41;;;;;;;4.13;2.73;;;20.20;56.10;;;;;;4993374;28;20456;-50
2022/04/21 13:47:08;;;;;;;3.67;2.60;;;20.20;56.70;;;;;;4993918;28;20448;-50
2022/04/21 13:49:35;;;;;;;3.37;3.10;;;20.10;55.60;;;;;;4993770;28;20807;-50